sensor_id;sensor_type;location;lat;lon;timestamp;P1;durP1;ratioP1;P2;durP2;ratioP2
6832;SDS011;3454;42.654;23.378;2023-06-22T00:01:50;9.15;;;7.93;;
6832;SDS011;3454;42.654;23.378;2023-06-22T00:04:16;8.90;;;7.18;;
6832;SDS011;3454;42.654;23.378;2023-06-22T00:06:41;9.40;;;7.00;;
6832;SDS011;3454;42.654;23.378;2023-06-22T00:09:06;8.38;;;7.13;;
6832;SDS011;3454;42.654;23.378;2023-06-22T00:11:32;8.77;;;6.90;;
6832;SDS011;3454;42.654;23.378;2023-06-22T00:13:58;11.00;;;7.90;;
6832;SDS011;3454;42.654;23.378;2023-06-22T00:16:24;9.65;;;7.63;;
6832;SDS011;3454;42.654;23.378;2023-06-22T00:18:50;15.88;;;8.27;;
6832;SDS011;3454;42.654;23.378;2023-06-22T00:21:15;8.73;;;7.22;;
6832;SDS011;3454;42.654;23.378;2023-06-22T00:23:41;9.25;;;8.27;;
6832;SDS011;3454;42.654;23.378;2023-06-22T00:26:07;9.60;;;7.70;;
6832;SDS011;3454;42.654;23.378;2023-06-22T00:28:33;8.57;;;7.50;;
6832;SDS011;3454;42.654;23.378;2023-06-22T00:31:00;10.50;;;8.73;;
6832;SDS011;3454;42.654;23.378;2023-06-22T00:33:26;11.00;;;8.55;;
6832;SDS011;3454;42.654;23.378;2023-06-22T00:35:53;9.20;;;8.20;;
6832;SDS011;3454;42.654;23.378;2023-06-22T00:38:19;10.25;;;8.20;;
6832;SDS011;3454;42.654;23.378;2023-06-22T00:40:45;10.52;;;9.35;;
6832;SDS011;3454;42.654;23.378;2023-06-22T00:43:11;10.10;;;8.50;;
6832;SDS011;3454;42.654;23.378;2023-06-22T00:45:36;10.82;;;7.57;;
6832;SDS011;3454;42.654;23.378;2023-06-22T00:48:02;9.27;;;7.57;;
6832;SDS011;3454;42.654;23.378;2023-06-22T00:50:31;9.13;;;8.07;;
6832;SDS011;3454;42.654;23.378;2023-06-22T00:52:59;10.77;;;7.90;;
6832;SDS011;3454;42.654;23.378;2023-06-22T00:55:36;10.05;;;6.80;;
6832;SDS011;3454;42.654;23.378;2023-06-22T00:58:04;8.15;;;7.35;;
6832;SDS011;3454;42.654;23.378;2023-06-22T01:00:35;8.43;;;7.40;;
6832;SDS011;3454;42.654;23.378;2023-06-22T01:03:01;8.55;;;6.90;;
6832;SDS011;3454;42.654;23.378;2023-06-22T01:05:27;10.98;;;8.27;;
6832;SDS011;3454;42.654;23.378;2023-06-22T01:14:19;8.07;;;7.00;;
6832;SDS011;3454;42.654;23.378;2023-06-22T01:16:50;9.15;;;7.90;;
6832;SDS011;3454;42.654;23.378;2023-06-22T01:22:22;7.63;;;6.93;;
6832;SDS011;3454;42.654;23.378;2023-06-22T01:30:15;8.40;;;7.60;;
6832;SDS011;3454;42.654;23.378;2023-06-22T01:32:43;8.00;;;7.20;;
6832;SDS011;3454;42.654;23.378;2023-06-22T01:35:09;8.93;;;7.55;;
6832;SDS011;3454;42.654;23.378;2023-06-22T01:37:37;8.30;;;7.50;;
6832;SDS011;3454;42.654;23.378;2023-06-22T01:40:03;8.88;;;7.28;;
6832;SDS011;3454;42.654;23.378;2023-06-22T01:42:33;12.82;;;7.90;;
6832;SDS011;3454;42.654;23.378;2023-06-22T01:45:00;8.88;;;7.88;;
6832;SDS011;3454;42.654;23.378;2023-06-22T01:47:27;10.43;;;7.55;;
6832;SDS011;3454;42.654;23.378;2023-06-22T01:49:53;8.90;;;7.75;;
6832;SDS011;3454;42.654;23.378;2023-06-22T01:52:19;8.82;;;7.97;;
6832;SDS011;3454;42.654;23.378;2023-06-22T01:54:46;8.55;;;7.22;;
6832;SDS011;3454;42.654;23.378;2023-06-22T01:57:13;8.65;;;7.75;;
6832;SDS011;3454;42.654;23.378;2023-06-22T01:59:40;10.32;;;7.45;;
6832;SDS011;3454;42.654;23.378;2023-06-22T02:02:19;8.82;;;7.93;;
6832;SDS011;3454;42.654;23.378;2023-06-22T02:04:54;9.48;;;8.43;;
6832;SDS011;3454;42.654;23.378;2023-06-22T02:07:23;12.02;;;7.97;;
6832;SDS011;3454;42.654;23.378;2023-06-22T02:09:57;11.90;;;7.95;;
6832;SDS011;3454;42.654;23.378;2023-06-22T02:12:25;9.63;;;7.95;;
6832;SDS011;3454;42.654;23.378;2023-06-22T02:14:53;9.27;;;8.38;;
6832;SDS011;3454;42.654;23.378;2023-06-22T02:17:19;9.30;;;7.68;;
6832;SDS011;3454;42.654;23.378;2023-06-22T02:19:45;9.68;;;8.05;;
6832;SDS011;3454;42.654;23.378;2023-06-22T02:22:10;11.02;;;7.80;;
6832;SDS011;3454;42.654;23.378;2023-06-22T02:24:38;9.70;;;7.93;;
6832;SDS011;3454;42.654;23.378;2023-06-22T02:27:04;8.77;;;7.88;;
6832;SDS011;3454;42.654;23.378;2023-06-22T02:29:32;10.63;;;8.07;;
6832;SDS011;3454;42.654;23.378;2023-06-22T02:31:57;9.30;;;8.40;;
6832;SDS011;3454;42.654;23.378;2023-06-22T02:34:23;11.02;;;8.38;;
6832;SDS011;3454;42.654;23.378;2023-06-22T02:36:49;10.82;;;7.95;;
6832;SDS011;3454;42.654;23.378;2023-06-22T02:39:21;9.32;;;8.32;;
6832;SDS011;3454;42.654;23.378;2023-06-22T02:41:51;9.05;;;8.25;;
6832;SDS011;3454;42.654;23.378;2023-06-22T02:44:18;11.63;;;8.68;;
6832;SDS011;3454;42.654;23.378;2023-06-22T02:46:44;9.35;;;8.10;;
6832;SDS011;3454;42.654;23.378;2023-06-22T02:49:10;8.35;;;7.13;;
6832;SDS011;3454;42.654;23.378;2023-06-22T02:51:38;9.15;;;8.25;;
6832;SDS011;3454;42.654;23.378;2023-06-22T02:54:04;9.60;;;8.52;;
6832;SDS011;3454;42.654;23.378;2023-06-22T02:56:33;12.70;;;9.55;;
6832;SDS011;3454;42.654;23.378;2023-06-22T02:58:58;9.88;;;8.27;;
6832;SDS011;3454;42.654;23.378;2023-06-22T03:01:27;9.20;;;7.28;;
6832;SDS011;3454;42.654;23.378;2023-06-22T03:03:55;8.75;;;7.75;;
6832;SDS011;3454;42.654;23.378;2023-06-22T03:06:21;10.27;;;8.68;;
6832;SDS011;3454;42.654;23.378;2023-06-22T03:08:53;12.32;;;8.75;;
6832;SDS011;3454;42.654;23.378;2023-06-22T03:11:23;11.10;;;8.20;;
6832;SDS011;3454;42.654;23.378;2023-06-22T03:13:48;9.73;;;8.73;;
6832;SDS011;3454;42.654;23.378;2023-06-22T03:16:14;12.13;;;8.82;;
6832;SDS011;3454;42.654;23.378;2023-06-22T03:18:39;26.08;;;20.15;;
6832;SDS011;3454;42.654;23.378;2023-06-22T03:21:05;10.77;;;9.10;;
6832;SDS011;3454;42.654;23.378;2023-06-22T03:23:30;29.15;;;19.42;;
6832;SDS011;3454;42.654;23.378;2023-06-22T03:25:56;13.82;;;9.23;;
6832;SDS011;3454;42.654;23.378;2023-06-22T03:28:21;9.98;;;8.80;;
6832;SDS011;3454;42.654;23.378;2023-06-22T03:30:47;12.63;;;9.25;;
6832;SDS011;3454;42.654;23.378;2023-06-22T03:33:12;10.18;;;8.82;;
6832;SDS011;3454;42.654;23.378;2023-06-22T03:35:38;10.65;;;9.23;;
6832;SDS011;3454;42.654;23.378;2023-06-22T03:38:03;13.55;;;9.73;;
6832;SDS011;3454;42.654;23.378;2023-06-22T03:40:29;12.95;;;9.32;;
6832;SDS011;3454;42.654;23.378;2023-06-22T03:42:54;9.75;;;8.25;;
6832;SDS011;3454;42.654;23.378;2023-06-22T03:45:20;11.73;;;8.52;;
6832;SDS011;3454;42.654;23.378;2023-06-22T03:47:45;17.70;;;9.95;;
6832;SDS011;3454;42.654;23.378;2023-06-22T03:50:11;15.60;;;9.50;;
6832;SDS011;3454;42.654;23.378;2023-06-22T03:52:37;13.35;;;9.65;;
6832;SDS011;3454;42.654;23.378;2023-06-22T03:55:02;14.80;;;9.05;;
6832;SDS011;3454;42.654;23.378;2023-06-22T03:57:28;14.93;;;9.70;;
6832;SDS011;3454;42.654;23.378;2023-06-22T03:59:56;15.52;;;9.77;;
6832;SDS011;3454;42.654;23.378;2023-06-22T04:02:23;11.82;;;9.52;;
6832;SDS011;3454;42.654;23.378;2023-06-22T04:04:48;11.82;;;9.45;;
6832;SDS011;3454;42.654;23.378;2023-06-22T04:07:14;12.75;;;10.00;;
6832;SDS011;3454;42.654;23.378;2023-06-22T04:09:39;13.45;;;9.88;;
6832;SDS011;3454;42.654;23.378;2023-06-22T04:12:05;15.02;;;10.27;;
6832;SDS011;3454;42.654;23.378;2023-06-22T04:14:30;12.60;;;10.88;;
6832;SDS011;3454;42.654;23.378;2023-06-22T04:16:57;14.27;;;10.98;;
6832;SDS011;3454;42.654;23.378;2023-06-22T04:19:22;15.75;;;12.82;;
6832;SDS011;3454;42.654;23.378;2023-06-22T04:21:48;18.05;;;13.23;;
6832;SDS011;3454;42.654;23.378;2023-06-22T04:24:14;15.52;;;12.98;;
6832;SDS011;3454;42.654;23.378;2023-06-22T04:26:47;14.77;;;11.07;;
6832;SDS011;3454;42.654;23.378;2023-06-22T04:29:13;14.27;;;11.80;;
6832;SDS011;3454;42.654;23.378;2023-06-22T04:31:38;16.10;;;12.25;;
6832;SDS011;3454;42.654;23.378;2023-06-22T04:34:05;17.52;;;11.07;;
6832;SDS011;3454;42.654;23.378;2023-06-22T04:36:40;14.10;;;11.55;;
6832;SDS011;3454;42.654;23.378;2023-06-22T04:39:07;12.65;;;10.93;;
6832;SDS011;3454;42.654;23.378;2023-06-22T04:41:35;14.80;;;11.02;;
6832;SDS011;3454;42.654;23.378;2023-06-22T04:44:11;15.50;;;11.27;;
6832;SDS011;3454;42.654;23.378;2023-06-22T04:46:52;15.98;;;10.85;;
6832;SDS011;3454;42.654;23.378;2023-06-22T04:49:33;14.65;;;11.13;;
6832;SDS011;3454;42.654;23.378;2023-06-22T04:52:07;14.30;;;11.20;;
6832;SDS011;3454;42.654;23.378;2023-06-22T04:54:34;12.05;;;10.73;;
6832;SDS011;3454;42.654;23.378;2023-06-22T04:57:01;16.70;;;11.77;;
6832;SDS011;3454;42.654;23.378;2023-06-22T04:59:29;17.10;;;12.10;;
6832;SDS011;3454;42.654;23.378;2023-06-22T05:01:58;14.52;;;11.05;;
6832;SDS011;3454;42.654;23.378;2023-06-22T05:04:28;14.60;;;12.35;;
6832;SDS011;3454;42.654;23.378;2023-06-22T05:06:56;25.98;;;17.48;;
6832;SDS011;3454;42.654;23.378;2023-06-22T05:09:22;31.67;;;18.58;;
6832;SDS011;3454;42.654;23.378;2023-06-22T05:11:48;20.25;;;13.60;;
6832;SDS011;3454;42.654;23.378;2023-06-22T05:14:14;16.90;;;13.23;;
6832;SDS011;3454;42.654;23.378;2023-06-22T05:16:43;16.30;;;12.90;;
6832;SDS011;3454;42.654;23.378;2023-06-22T05:19:09;16.98;;;12.75;;
6832;SDS011;3454;42.654;23.378;2023-06-22T05:21:35;19.65;;;12.65;;
6832;SDS011;3454;42.654;23.378;2023-06-22T05:24:01;21.05;;;12.75;;
6832;SDS011;3454;42.654;23.378;2023-06-22T05:26:28;17.15;;;13.00;;
6832;SDS011;3454;42.654;23.378;2023-06-22T05:28:54;18.10;;;13.70;;
6832;SDS011;3454;42.654;23.378;2023-06-22T05:31:20;18.90;;;14.65;;
6832;SDS011;3454;42.654;23.378;2023-06-22T05:33:46;15.07;;;12.65;;
6832;SDS011;3454;42.654;23.378;2023-06-22T05:36:12;15.88;;;12.88;;
6832;SDS011;3454;42.654;23.378;2023-06-22T05:38:38;12.55;;;10.10;;
6832;SDS011;3454;42.654;23.378;2023-06-22T05:41:04;13.98;;;10.85;;
6832;SDS011;3454;42.654;23.378;2023-06-22T05:43:30;16.88;;;11.68;;
6832;SDS011;3454;42.654;23.378;2023-06-22T05:45:56;19.42;;;12.63;;
6832;SDS011;3454;42.654;23.378;2023-06-22T05:48:22;13.25;;;11.38;;
6832;SDS011;3454;42.654;23.378;2023-06-22T05:50:48;20.17;;;13.10;;
6832;SDS011;3454;42.654;23.378;2023-06-22T05:53:13;14.60;;;12.05;;
6832;SDS011;3454;42.654;23.378;2023-06-22T05:55:39;19.90;;;13.23;;
6832;SDS011;3454;42.654;23.378;2023-06-22T05:58:04;20.33;;;13.75;;
6832;SDS011;3454;42.654;23.378;2023-06-22T06:00:30;18.52;;;12.35;;
6832;SDS011;3454;42.654;23.378;2023-06-22T06:02:56;21.85;;;15.20;;
6832;SDS011;3454;42.654;23.378;2023-06-22T06:05:21;19.02;;;14.15;;
6832;SDS011;3454;42.654;23.378;2023-06-22T06:07:48;24.15;;;15.55;;
6832;SDS011;3454;42.654;23.378;2023-06-22T06:10:13;21.45;;;14.13;;
6832;SDS011;3454;42.654;23.378;2023-06-22T06:12:39;30.40;;;12.70;;
6832;SDS011;3454;42.654;23.378;2023-06-22T06:15:04;18.08;;;14.20;;
6832;SDS011;3454;42.654;23.378;2023-06-22T06:17:30;17.65;;;13.55;;
6832;SDS011;3454;42.654;23.378;2023-06-22T06:19:55;28.88;;;13.52;;
6832;SDS011;3454;42.654;23.378;2023-06-22T06:22:21;17.27;;;13.77;;
6832;SDS011;3454;42.654;23.378;2023-06-22T06:24:48;21.92;;;14.23;;
6832;SDS011;3454;42.654;23.378;2023-06-22T06:27:14;15.70;;;10.88;;
6832;SDS011;3454;42.654;23.378;2023-06-22T06:29:40;19.98;;;13.93;;
6832;SDS011;3454;42.654;23.378;2023-06-22T06:32:05;15.65;;;12.38;;
6832;SDS011;3454;42.654;23.378;2023-06-22T06:34:31;15.95;;;10.18;;
6832;SDS011;3454;42.654;23.378;2023-06-22T06:36:57;16.63;;;12.05;;
6832;SDS011;3454;42.654;23.378;2023-06-22T06:39:22;14.90;;;12.07;;
6832;SDS011;3454;42.654;23.378;2023-06-22T06:41:48;18.00;;;11.30;;
6832;SDS011;3454;42.654;23.378;2023-06-22T06:44:13;21.98;;;12.40;;
6832;SDS011;3454;42.654;23.378;2023-06-22T06:46:38;17.92;;;12.98;;
6832;SDS011;3454;42.654;23.378;2023-06-22T06:49:04;16.33;;;12.10;;
6832;SDS011;3454;42.654;23.378;2023-06-22T06:51:29;18.55;;;12.40;;
6832;SDS011;3454;42.654;23.378;2023-06-22T06:53:55;16.67;;;12.13;;
6832;SDS011;3454;42.654;23.378;2023-06-22T06:56:20;18.25;;;11.27;;
6832;SDS011;3454;42.654;23.378;2023-06-22T06:58:45;12.38;;;10.88;;
6832;SDS011;3454;42.654;23.378;2023-06-22T07:01:14;14.57;;;11.57;;
6832;SDS011;3454;42.654;23.378;2023-06-22T07:03:40;16.63;;;11.80;;
6832;SDS011;3454;42.654;23.378;2023-06-22T07:06:05;14.15;;;10.68;;
6832;SDS011;3454;42.654;23.378;2023-06-22T07:08:30;16.52;;;11.48;;
6832;SDS011;3454;42.654;23.378;2023-06-22T07:10:56;14.65;;;11.20;;
6832;SDS011;3454;42.654;23.378;2023-06-22T07:13:21;14.20;;;10.80;;
6832;SDS011;3454;42.654;23.378;2023-06-22T07:15:47;14.73;;;11.65;;
6832;SDS011;3454;42.654;23.378;2023-06-22T07:18:12;13.45;;;10.52;;
6832;SDS011;3454;42.654;23.378;2023-06-22T07:20:38;17.30;;;11.27;;
6832;SDS011;3454;42.654;23.378;2023-06-22T07:23:04;18.38;;;10.68;;
6832;SDS011;3454;42.654;23.378;2023-06-22T07:25:30;15.30;;;11.02;;
6832;SDS011;3454;42.654;23.378;2023-06-22T07:30:28;12.75;;;10.45;;
6832;SDS011;3454;42.654;23.378;2023-06-22T07:32:54;15.38;;;11.63;;
6832;SDS011;3454;42.654;23.378;2023-06-22T07:35:20;12.68;;;10.65;;
6832;SDS011;3454;42.654;23.378;2023-06-22T07:37:45;18.80;;;11.98;;
6832;SDS011;3454;42.654;23.378;2023-06-22T07:40:11;16.27;;;10.60;;
6832;SDS011;3454;42.654;23.378;2023-06-22T07:42:37;11.57;;;10.38;;
6832;SDS011;3454;42.654;23.378;2023-06-22T07:45:03;14.30;;;9.85;;
6832;SDS011;3454;42.654;23.378;2023-06-22T07:47:29;12.40;;;9.57;;
6832;SDS011;3454;42.654;23.378;2023-06-22T07:49:55;16.23;;;10.82;;
6832;SDS011;3454;42.654;23.378;2023-06-22T07:52:23;18.42;;;9.50;;
6832;SDS011;3454;42.654;23.378;2023-06-22T07:54:49;13.10;;;9.68;;
6832;SDS011;3454;42.654;23.378;2023-06-22T07:57:15;12.20;;;9.88;;
6832;SDS011;3454;42.654;23.378;2023-06-22T07:59:40;17.15;;;10.07;;
6832;SDS011;3454;42.654;23.378;2023-06-22T08:02:06;11.10;;;9.77;;
6832;SDS011;3454;42.654;23.378;2023-06-22T08:04:33;11.82;;;10.27;;
6832;SDS011;3454;42.654;23.378;2023-06-22T08:06:59;11.65;;;9.95;;
6832;SDS011;3454;42.654;23.378;2023-06-22T08:09:27;14.15;;;11.35;;
6832;SDS011;3454;42.654;23.378;2023-06-22T08:11:54;14.63;;;10.73;;
6832;SDS011;3454;42.654;23.378;2023-06-22T08:14:21;15.43;;;10.95;;
6832;SDS011;3454;42.654;23.378;2023-06-22T08:16:47;13.85;;;10.40;;
6832;SDS011;3454;42.654;23.378;2023-06-22T08:19:13;20.77;;;10.93;;
6832;SDS011;3454;42.654;23.378;2023-06-22T08:21:38;10.93;;;9.13;;
6832;SDS011;3454;42.654;23.378;2023-06-22T08:24:04;11.80;;;10.23;;
6832;SDS011;3454;42.654;23.378;2023-06-22T08:26:29;14.43;;;11.02;;
6832;SDS011;3454;42.654;23.378;2023-06-22T08:28:55;14.65;;;10.98;;
6832;SDS011;3454;42.654;23.378;2023-06-22T08:31:21;14.43;;;11.40;;
6832;SDS011;3454;42.654;23.378;2023-06-22T08:34:04;15.20;;;10.98;;
6832;SDS011;3454;42.654;23.378;2023-06-22T08:36:30;12.13;;;9.98;;
6832;SDS011;3454;42.654;23.378;2023-06-22T08:39:00;12.70;;;11.35;;
6832;SDS011;3454;42.654;23.378;2023-06-22T08:41:28;14.50;;;10.80;;
6832;SDS011;3454;42.654;23.378;2023-06-22T08:43:54;12.35;;;10.15;;
6832;SDS011;3454;42.654;23.378;2023-06-22T08:46:19;13.65;;;11.02;;
6832;SDS011;3454;42.654;23.378;2023-06-22T08:48:48;10.10;;;9.15;;
6832;SDS011;3454;42.654;23.378;2023-06-22T08:51:14;13.10;;;10.40;;
6832;SDS011;3454;42.654;23.378;2023-06-22T08:53:39;17.13;;;10.88;;
6832;SDS011;3454;42.654;23.378;2023-06-22T08:56:04;13.18;;;11.48;;
6832;SDS011;3454;42.654;23.378;2023-06-22T08:58:30;14.93;;;11.13;;
6832;SDS011;3454;42.654;23.378;2023-06-22T09:00:56;14.07;;;11.32;;
6832;SDS011;3454;42.654;23.378;2023-06-22T09:03:21;15.82;;;11.48;;
6832;SDS011;3454;42.654;23.378;2023-06-22T09:05:51;16.35;;;11.57;;
6832;SDS011;3454;42.654;23.378;2023-06-22T09:08:16;16.05;;;11.63;;
6832;SDS011;3454;42.654;23.378;2023-06-22T09:10:42;16.83;;;11.50;;
6832;SDS011;3454;42.654;23.378;2023-06-22T09:13:07;15.25;;;11.52;;
6832;SDS011;3454;42.654;23.378;2023-06-22T09:15:33;15.13;;;11.00;;
6832;SDS011;3454;42.654;23.378;2023-06-22T09:17:59;11.63;;;10.43;;
6832;SDS011;3454;42.654;23.378;2023-06-22T09:20:25;10.93;;;9.73;;
6832;SDS011;3454;42.654;23.378;2023-06-22T09:22:50;15.13;;;9.68;;
6832;SDS011;3454;42.654;23.378;2023-06-22T09:25:16;14.35;;;10.32;;
6832;SDS011;3454;42.654;23.378;2023-06-22T09:27:41;15.63;;;10.48;;
6832;SDS011;3454;42.654;23.378;2023-06-22T09:30:07;13.73;;;10.15;;
6832;SDS011;3454;42.654;23.378;2023-06-22T09:32:32;13.57;;;10.98;;
6832;SDS011;3454;42.654;23.378;2023-06-22T09:34:58;16.40;;;10.45;;
6832;SDS011;3454;42.654;23.378;2023-06-22T09:37:23;9.30;;;8.05;;
6832;SDS011;3454;42.654;23.378;2023-06-22T09:39:49;9.02;;;8.15;;
6832;SDS011;3454;42.654;23.378;2023-06-22T09:42:14;11.30;;;8.38;;
6832;SDS011;3454;42.654;23.378;2023-06-22T09:44:40;9.95;;;8.52;;
6832;SDS011;3454;42.654;23.378;2023-06-22T09:47:05;16.15;;;8.25;;
6832;SDS011;3454;42.654;23.378;2023-06-22T09:49:31;9.27;;;8.32;;
6832;SDS011;3454;42.654;23.378;2023-06-22T09:51:57;9.57;;;8.60;;
6832;SDS011;3454;42.654;23.378;2023-06-22T09:54:22;11.80;;;8.80;;
6832;SDS011;3454;42.654;23.378;2023-06-22T09:56:48;12.05;;;8.85;;
6832;SDS011;3454;42.654;23.378;2023-06-22T09:59:13;12.30;;;10.02;;
6832;SDS011;3454;42.654;23.378;2023-06-22T10:01:39;10.98;;;8.85;;
6832;SDS011;3454;42.654;23.378;2023-06-22T10:04:05;11.27;;;10.00;;
6832;SDS011;3454;42.654;23.378;2023-06-22T10:06:30;15.10;;;9.63;;
6832;SDS011;3454;42.654;23.378;2023-06-22T10:08:55;16.08;;;10.45;;
6832;SDS011;3454;42.654;23.378;2023-06-22T10:11:21;10.40;;;9.30;;
6832;SDS011;3454;42.654;23.378;2023-06-22T10:13:52;8.45;;;7.47;;
6832;SDS011;3454;42.654;23.378;2023-06-22T10:16:17;7.93;;;7.13;;
6832;SDS011;3454;42.654;23.378;2023-06-22T10:18:42;10.25;;;9.20;;
6832;SDS011;3454;42.654;23.378;2023-06-22T10:21:08;13.05;;;9.40;;
6832;SDS011;3454;42.654;23.378;2023-06-22T10:23:34;13.63;;;10.10;;
6832;SDS011;3454;42.654;23.378;2023-06-22T10:26:00;13.13;;;9.88;;
6832;SDS011;3454;42.654;23.378;2023-06-22T10:28:25;12.20;;;10.13;;
6832;SDS011;3454;42.654;23.378;2023-06-22T10:30:51;11.25;;;8.98;;
6832;SDS011;3454;42.654;23.378;2023-06-22T10:33:16;9.60;;;8.60;;
6832;SDS011;3454;42.654;23.378;2023-06-22T10:35:41;9.70;;;7.95;;
6832;SDS011;3454;42.654;23.378;2023-06-22T10:38:07;9.27;;;6.75;;
6832;SDS011;3454;42.654;23.378;2023-06-22T10:40:33;7.68;;;6.88;;
6832;SDS011;3454;42.654;23.378;2023-06-22T10:42:59;8.15;;;7.25;;
6832;SDS011;3454;42.654;23.378;2023-06-22T10:45:25;9.73;;;7.88;;
6832;SDS011;3454;42.654;23.378;2023-06-22T10:47:50;14.82;;;8.80;;
6832;SDS011;3454;42.654;23.378;2023-06-22T10:50:16;9.23;;;8.40;;
6832;SDS011;3454;42.654;23.378;2023-06-22T10:52:41;8.55;;;7.60;;
6832;SDS011;3454;42.654;23.378;2023-06-22T10:55:07;10.15;;;9.15;;
6832;SDS011;3454;42.654;23.378;2023-06-22T10:57:33;11.35;;;9.85;;
6832;SDS011;3454;42.654;23.378;2023-06-22T10:59:59;9.90;;;7.85;;
6832;SDS011;3454;42.654;23.378;2023-06-22T11:02:24;9.35;;;8.45;;
6832;SDS011;3454;42.654;23.378;2023-06-22T11:04:50;8.48;;;7.50;;
6832;SDS011;3454;42.654;23.378;2023-06-22T11:07:16;10.65;;;8.07;;
6832;SDS011;3454;42.654;23.378;2023-06-22T11:09:45;8.88;;;7.80;;
6832;SDS011;3454;42.654;23.378;2023-06-22T11:12:10;7.82;;;7.13;;
6832;SDS011;3454;42.654;23.378;2023-06-22T11:14:36;8.73;;;7.75;;
6832;SDS011;3454;42.654;23.378;2023-06-22T11:17:04;8.40;;;7.65;;
6832;SDS011;3454;42.654;23.378;2023-06-22T11:19:29;8.38;;;7.57;;
6832;SDS011;3454;42.654;23.378;2023-06-22T11:21:54;7.88;;;7.00;;
6832;SDS011;3454;42.654;23.378;2023-06-22T11:24:20;7.40;;;6.60;;
6832;SDS011;3454;42.654;23.378;2023-06-22T11:26:45;8.10;;;7.40;;
6832;SDS011;3454;42.654;23.378;2023-06-22T11:29:11;7.72;;;6.93;;
6832;SDS011;3454;42.654;23.378;2023-06-22T11:31:36;9.10;;;7.38;;
6832;SDS011;3454;42.654;23.378;2023-06-22T11:34:03;8.00;;;7.20;;
6832;SDS011;3454;42.654;23.378;2023-06-22T11:36:28;7.95;;;7.20;;
6832;SDS011;3454;42.654;23.378;2023-06-22T11:38:56;10.73;;;7.28;;
6832;SDS011;3454;42.654;23.378;2023-06-22T11:41:21;8.43;;;7.60;;
6832;SDS011;3454;42.654;23.378;2023-06-22T11:43:47;11.57;;;7.28;;
6832;SDS011;3454;42.654;23.378;2023-06-22T11:46:13;8.23;;;7.35;;
6832;SDS011;3454;42.654;23.378;2023-06-22T11:48:38;9.93;;;7.93;;
6832;SDS011;3454;42.654;23.378;2023-06-22T11:51:04;9.60;;;8.57;;
6832;SDS011;3454;42.654;23.378;2023-06-22T11:53:31;9.02;;;7.60;;
6832;SDS011;3454;42.654;23.378;2023-06-22T11:55:57;8.27;;;6.95;;
6832;SDS011;3454;42.654;23.378;2023-06-22T11:58:22;7.88;;;7.00;;
6832;SDS011;3454;42.654;23.378;2023-06-22T12:00:48;10.75;;;7.22;;
6832;SDS011;3454;42.654;23.378;2023-06-22T12:03:14;8.38;;;7.50;;
6832;SDS011;3454;42.654;23.378;2023-06-22T12:05:40;8.23;;;7.43;;
6832;SDS011;3454;42.654;23.378;2023-06-22T12:08:12;10.85;;;7.80;;
6832;SDS011;3454;42.654;23.378;2023-06-22T12:10:38;9.80;;;7.43;;
6832;SDS011;3454;42.654;23.378;2023-06-22T12:13:04;8.10;;;7.30;;
6832;SDS011;3454;42.654;23.378;2023-06-22T12:15:29;8.25;;;7.50;;
6832;SDS011;3454;42.654;23.378;2023-06-22T12:17:55;10.73;;;7.80;;
6832;SDS011;3454;42.654;23.378;2023-06-22T12:20:20;8.40;;;7.45;;
6832;SDS011;3454;42.654;23.378;2023-06-22T12:22:46;11.65;;;8.70;;
6832;SDS011;3454;42.654;23.378;2023-06-22T12:25:12;11.40;;;8.15;;
6832;SDS011;3454;42.654;23.378;2023-06-22T12:27:37;10.30;;;7.97;;
6832;SDS011;3454;42.654;23.378;2023-06-22T12:30:03;14.05;;;8.13;;
6832;SDS011;3454;42.654;23.378;2023-06-22T12:32:29;11.55;;;8.40;;
6832;SDS011;3454;42.654;23.378;2023-06-22T12:34:55;11.43;;;8.18;;
6832;SDS011;3454;42.654;23.378;2023-06-22T12:37:21;10.73;;;8.10;;
6832;SDS011;3454;42.654;23.378;2023-06-22T12:39:46;17.00;;;8.25;;
6832;SDS011;3454;42.654;23.378;2023-06-22T12:42:11;11.63;;;7.65;;
6832;SDS011;3454;42.654;23.378;2023-06-22T12:44:38;14.65;;;8.52;;
6832;SDS011;3454;42.654;23.378;2023-06-22T12:47:04;14.43;;;9.20;;
6832;SDS011;3454;42.654;23.378;2023-06-22T12:49:30;12.80;;;8.57;;
6832;SDS011;3454;42.654;23.378;2023-06-22T12:51:55;13.50;;;8.85;;
6832;SDS011;3454;42.654;23.378;2023-06-22T12:54:21;12.52;;;8.75;;
6832;SDS011;3454;42.654;23.378;2023-06-22T12:56:46;14.38;;;8.60;;
6832;SDS011;3454;42.654;23.378;2023-06-22T12:59:12;14.13;;;8.60;;
6832;SDS011;3454;42.654;23.378;2023-06-22T13:01:37;12.63;;;9.38;;
6832;SDS011;3454;42.654;23.378;2023-06-22T13:04:03;14.93;;;10.52;;
6832;SDS011;3454;42.654;23.378;2023-06-22T13:06:28;13.55;;;8.57;;
6832;SDS011;3454;42.654;23.378;2023-06-22T13:08:54;12.35;;;10.35;;
6832;SDS011;3454;42.654;23.378;2023-06-22T13:11:19;18.38;;;10.65;;
6832;SDS011;3454;42.654;23.378;2023-06-22T13:13:45;11.00;;;8.73;;
6832;SDS011;3454;42.654;23.378;2023-06-22T13:16:11;15.10;;;9.50;;
6832;SDS011;3454;42.654;23.378;2023-06-22T13:18:37;10.60;;;9.32;;
6832;SDS011;3454;42.654;23.378;2023-06-22T13:21:03;13.38;;;9.85;;
6832;SDS011;3454;42.654;23.378;2023-06-22T13:23:29;11.60;;;9.43;;
6832;SDS011;3454;42.654;23.378;2023-06-22T13:25:55;11.68;;;8.73;;
6832;SDS011;3454;42.654;23.378;2023-06-22T13:28:20;11.35;;;9.23;;
6832;SDS011;3454;42.654;23.378;2023-06-22T13:30:46;11.93;;;9.65;;
6832;SDS011;3454;42.654;23.378;2023-06-22T13:33:13;12.82;;;10.02;;
6832;SDS011;3454;42.654;23.378;2023-06-22T13:35:38;12.38;;;9.60;;
6832;SDS011;3454;42.654;23.378;2023-06-22T13:38:04;15.10;;;9.27;;
6832;SDS011;3454;42.654;23.378;2023-06-22T13:40:30;12.02;;;9.45;;
6832;SDS011;3454;42.654;23.378;2023-06-22T13:42:56;11.68;;;9.10;;
6832;SDS011;3454;42.654;23.378;2023-06-22T13:45:21;15.05;;;9.13;;
6832;SDS011;3454;42.654;23.378;2023-06-22T13:47:47;11.27;;;7.80;;
6832;SDS011;3454;42.654;23.378;2023-06-22T13:50:12;11.60;;;8.45;;
6832;SDS011;3454;42.654;23.378;2023-06-22T13:52:38;11.20;;;8.70;;
6832;SDS011;3454;42.654;23.378;2023-06-22T13:55:04;11.52;;;9.05;;
6832;SDS011;3454;42.654;23.378;2023-06-22T13:57:30;13.50;;;9.77;;
6832;SDS011;3454;42.654;23.378;2023-06-22T13:59:56;12.88;;;8.90;;
6832;SDS011;3454;42.654;23.378;2023-06-22T14:02:21;15.27;;;9.68;;
6832;SDS011;3454;42.654;23.378;2023-06-22T14:04:47;12.55;;;8.18;;
6832;SDS011;3454;42.654;23.378;2023-06-22T14:07:12;14.23;;;9.25;;
6832;SDS011;3454;42.654;23.378;2023-06-22T14:09:38;18.95;;;9.70;;
6832;SDS011;3454;42.654;23.378;2023-06-22T14:12:04;15.55;;;9.90;;
6832;SDS011;3454;42.654;23.378;2023-06-22T14:14:31;18.63;;;9.50;;
6832;SDS011;3454;42.654;23.378;2023-06-22T14:16:58;14.70;;;9.43;;
6832;SDS011;3454;42.654;23.378;2023-06-22T14:19:23;10.45;;;8.55;;
6832;SDS011;3454;42.654;23.378;2023-06-22T14:21:49;10.95;;;9.13;;
6832;SDS011;3454;42.654;23.378;2023-06-22T14:24:14;12.30;;;9.52;;
6832;SDS011;3454;42.654;23.378;2023-06-22T14:26:39;14.52;;;10.23;;
6832;SDS011;3454;42.654;23.378;2023-06-22T14:29:05;17.58;;;10.35;;
6832;SDS011;3454;42.654;23.378;2023-06-22T14:31:30;14.90;;;11.10;;
6832;SDS011;3454;42.654;23.378;2023-06-22T14:33:56;18.63;;;11.02;;
6832;SDS011;3454;42.654;23.378;2023-06-22T14:36:21;16.00;;;11.18;;
6832;SDS011;3454;42.654;23.378;2023-06-22T14:38:47;12.73;;;11.35;;
6832;SDS011;3454;42.654;23.378;2023-06-22T14:41:12;14.90;;;11.32;;
6832;SDS011;3454;42.654;23.378;2023-06-22T14:43:43;13.90;;;11.02;;
6832;SDS011;3454;42.654;23.378;2023-06-22T14:46:09;14.18;;;11.27;;
6832;SDS011;3454;42.654;23.378;2023-06-22T14:48:34;15.13;;;11.50;;
6832;SDS011;3454;42.654;23.378;2023-06-22T14:51:00;13.85;;;10.95;;
6832;SDS011;3454;42.654;23.378;2023-06-22T14:53:25;12.82;;;10.48;;
6832;SDS011;3454;42.654;23.378;2023-06-22T14:55:51;12.38;;;10.80;;
6832;SDS011;3454;42.654;23.378;2023-06-22T14:58:16;13.63;;;11.10;;